Time;durP1;ratioP1;P1;durP2;ratioP2;P2;SDS_P1;SDS_P2;PMS_P1;PMS_P2;Temp;Humidity;BMP_temperature;BMP_pressure;BME280_temperature;BME280_humidity;BME280_pressure;Samples;Min_cycle;Max_cycle;Signal;HPM_P1;HPM_P2
2023/01/12 17:32:54;;;;;;;6.60;3.75;;;10.10;99.90;;;;;;5130154;27;20467;-69
2023/01/12 17:35:20;;;;;;;8.48;4.35;;;10.10;99.90;;;;;;5136422;27;20035;-67
2023/01/12 17:37:45;;;;;;;5.53;3.47;;;10.20;99.90;;;;;;5146031;27;20023;-66
2023/01/12 17:40:11;;;;;;;7.13;3.53;;;10.30;99.90;;;;;;5130288;28;20147;-67
2023/01/12 17:45:21;;;;;;;5.07;3.10;;;10.40;99.90;;;;;;5130337;27;20038;-67
2023/01/12 17:47:47;;;;;;;7.30;4.30;;;10.40;99.90;;;;;;5110987;28;20020;-66
2023/01/12 17:50:12;;;;;;;7.68;3.75;;;10.50;99.90;;;;;;5130497;27;20027;-67
2023/01/12 17:52:38;;;;;;;4.57;3.45;;;10.50;99.90;;;;;;5130061;27;20070;-68
2023/01/12 17:55:04;;;;;;;5.05;3.55;;;10.50;99.90;;;;;;5129622;28;20015;-68
2023/01/12 17:57:30;;;;;;;5.70;4.15;;;10.60;99.90;;;;;;5112663;27;20089;-69
2023/01/12 17:59:56;;;;;;;5.10;3.30;;;10.60;99.90;;;;;;5130773;27;20023;-69
2023/01/12 18:02:21;;;;;;;5.20;3.35;;;10.50;99.90;;;;;;5110850;28;20491;-68
2023/01/12 18:04:47;;;;;;;5.75;2.72;;;10.60;99.90;;;;;;5129393;28;20396;-66
2023/01/12 18:07:12;;;;;;;3.95;2.63;;;10.60;99.90;;;;;;5129761;27;20019;-65
2023/01/12 18:09:38;;;;;;;4.43;2.92;;;10.60;99.90;;;;;;5129362;28;20392;-66
2023/01/12 18:12:04;;;;;;;3.40;2.38;;;10.60;99.90;;;;;;5129354;28;20050;-64
2023/01/12 18:14:29;;;;;;;5.55;3.30;;;10.60;99.90;;;;;;5127231;27;20028;-67
2023/01/12 18:16:56;;;;;;;4.90;2.72;;;10.60;99.90;;;;;;5110020;28;20026;-65
2023/01/12 18:19:22;;;;;;;5.50;2.80;;;10.60;99.90;;;;;;5111525;28;20388;-71
2023/01/12 18:21:49;;;;;;;4.22;2.67;;;10.60;99.90;;;;;;5129039;28;20023;-68
2023/01/12 18:24:14;;;;;;;4.78;2.88;;;10.60;99.90;;;;;;5128726;28;20016;-65
2023/01/12 18:26:40;;;;;;;4.80;2.55;;;10.60;99.90;;;;;;5129545;28;20026;-70
2023/01/12 18:29:06;;;;;;;6.07;3.30;;;10.60;99.90;;;;;;5097027;28;20020;-68
2023/01/12 18:31:36;;;;;;;5.32;3.33;;;10.60;99.90;;;;;;5144490;27;20090;-66
2023/01/12 18:34:13;;;;;;;4.50;3.40;;;10.60;99.90;;;;;;5149522;27;20487;-66
2023/01/12 18:36:40;;;;;;;5.47;3.67;;;10.50;99.90;;;;;;5149713;27;20161;-67
2023/01/12 18:39:07;;;;;;;6.68;4.20;;;10.60;99.90;;;;;;5147470;27;20019;-66
2023/01/12 18:44:19;;;;;;;8.07;4.63;;;10.60;99.90;;;;;;5132478;27;20034;-67
2023/01/12 18:49:31;;;;;;;7.95;4.90;;;10.60;99.90;;;;;;5135139;27;20502;-67
2023/01/12 18:54:46;;;;;;;7.75;5.40;;;10.50;99.90;;;;;;5133907;27;20507;-67
2023/01/12 18:57:19;;;;;;;8.32;4.97;;;10.60;99.90;;;;;;5135668;27;20076;-67
2023/01/12 18:59:50;;;;;;;8.50;5.10;;;10.60;99.90;;;;;;5133553;27;20329;-67
2023/01/12 19:02:18;;;;;;;7.47;5.00;;;10.50;99.90;;;;;;5130762;27;20011;-67
2023/01/12 19:07:15;;;;;;;7.40;5.07;;;10.60;99.90;;;;;;5106093;27;20020;-65
2023/01/12 19:09:41;;;;;;;8.45;5.30;;;10.60;99.90;;;;;;5115663;27;20114;-64
2023/01/12 19:12:07;;;;;;;10.27;6.47;;;10.60;99.90;;;;;;5131926;27;20146;-68
2023/01/12 19:17:26;;;;;;;8.98;5.60;;;10.50;99.90;;;;;;5129284;27;20115;-68
2023/01/12 19:19:52;;;;;;;9.00;5.55;;;10.60;99.90;;;;;;5125441;27;20032;-65
2023/01/12 19:30:32;;;;;;;10.23;5.32;;;10.60;99.90;;;;;;5100932;27;20031;-66
2023/01/12 19:32:59;;;;;;;10.48;5.55;;;10.60;99.90;;;;;;5078082;28;20028;-66
2023/01/12 19:35:26;;;;;;;8.63;5.95;;;10.60;99.90;;;;;;5098115;27;20023;-65
2023/01/12 19:37:51;;;;;;;9.85;6.05;;;10.50;99.90;;;;;;5085092;28;20361;-67
2023/01/12 19:40:24;;;;;;;10.70;6.28;;;10.60;99.90;;;;;;5093632;27;20031;-65
2023/01/12 19:45:42;;;;;;;8.00;5.55;;;10.60;99.90;;;;;;5092596;28;20124;-68
2023/01/12 19:48:09;;;;;;;9.50;6.07;;;10.60;99.90;;;;;;5091780;28;20051;-70
2023/01/12 19:50:36;;;;;;;9.35;5.97;;;10.60;99.90;;;;;;5075243;28;20020;-69
2023/01/12 19:53:02;;;;;;;8.27;5.65;;;10.60;99.90;;;;;;5109693;27;20475;-69
2023/01/12 19:55:30;;;;;;;10.57;6.30;;;10.60;99.90;;;;;;5114255;27;20023;-70
2023/01/12 19:57:56;;;;;;;10.93;6.43;;;10.60;99.90;;;;;;5114783;27;20031;-69
2023/01/12 20:00:22;;;;;;;9.57;6.07;;;10.60;99.90;;;;;;5115453;27;20019;-71
2023/01/12 20:02:48;;;;;;;10.02;6.13;;;10.60;99.90;;;;;;5123068;27;20024;-70
2023/01/12 20:05:21;;;;;;;9.13;5.88;;;10.60;99.90;;;;;;5094964;28;20599;-71
2023/01/12 20:07:51;;;;;;;11.73;6.18;;;10.60;99.90;;;;;;5113483;27;20080;-70
2023/01/12 20:10:18;;;;;;;7.67;5.37;;;10.60;99.90;;;;;;5112578;28;20110;-71
2023/01/12 20:12:43;;;;;;;10.07;6.38;;;10.60;99.90;;;;;;5095054;28;20479;-71
2023/01/12 20:15:09;;;;;;;11.18;6.43;;;10.60;99.90;;;;;;5112197;28;20028;-70
2023/01/12 20:17:35;;;;;;;10.48;6.10;;;10.60;99.90;;;;;;5093449;28;20072;-70
2023/01/12 20:20:02;;;;;;;10.93;6.63;;;10.60;99.90;;;;;;5093634;28;20031;-69
2023/01/12 20:22:28;;;;;;;10.15;6.35;;;10.60;99.90;;;;;;5119870;27;20030;-68
2023/01/12 20:24:54;;;;;;;11.18;6.32;;;10.60;99.90;;;;;;5114460;27;20383;-69
2023/01/12 20:27:19;;;;;;;10.20;6.80;;;10.60;99.90;;;;;;5132917;27;20066;-69
2023/01/12 20:29:45;;;;;;;8.10;5.65;;;10.60;99.90;;;;;;5132047;27;20023;-68
2023/01/12 20:32:10;;;;;;;11.35;6.03;;;10.60;99.90;;;;;;5114708;27;20573;-68
2023/01/12 20:34:36;;;;;;;7.22;5.35;;;10.60;99.90;;;;;;5114645;27;20019;-69
2023/01/12 20:37:02;;;;;;;9.30;5.75;;;10.60;99.90;;;;;;5131360;27;20062;-69
2023/01/12 20:39:28;;;;;;;11.23;5.80;;;10.60;99.90;;;;;;5132386;27;20043;-69
2023/01/12 20:41:54;;;;;;;8.55;4.78;;;10.50;99.90;;;;;;5133134;27;20031;-71
2023/01/12 20:44:19;;;;;;;8.70;5.25;;;10.60;99.90;;;;;;5132676;27;20027;-70
2023/01/12 20:46:45;;;;;;;8.43;4.85;;;10.50;99.90;;;;;;5132578;27;20034;-70
2023/01/12 20:49:11;;;;;;;8.02;5.10;;;10.60;99.90;;;;;;5132493;27;20102;-70
2023/01/12 20:51:37;;;;;;;6.80;4.47;;;10.60;99.90;;;;;;5130182;27;20088;-70
2023/01/12 20:54:04;;;;;;;5.97;4.40;;;10.60;99.90;;;;;;5132548;27;20015;-70
2023/01/12 20:56:30;;;;;;;6.60;4.40;;;10.60;99.90;;;;;;5132918;27;20034;-70
2023/01/12 20:58:57;;;;;;;6.90;4.28;;;10.50;99.90;;;;;;5112799;28;20019;-69
2023/01/12 21:01:23;;;;;;;6.85;4.35;;;10.60;99.90;;;;;;5132605;27;20467;-68
2023/01/12 21:03:50;;;;;;;8.23;4.68;;;10.60;99.90;;;;;;5124593;27;20027;-68
2023/01/12 21:06:17;;;;;;;7.50;4.53;;;10.60;99.90;;;;;;5125740;27;20058;-68
2023/01/12 21:08:44;;;;;;;6.68;4.63;;;10.60;99.90;;;;;;5107129;27;20019;-68
2023/01/12 21:11:12;;;;;;;7.15;5.00;;;10.60;99.90;;;;;;5132527;27;20112;-68
2023/01/12 21:13:38;;;;;;;8.70;5.25;;;10.60;99.90;;;;;;5128754;27;20023;-68
2023/01/12 21:16:05;;;;;;;7.40;4.82;;;10.60;99.90;;;;;;5114752;28;20378;-68
